sensor_id;sensor_type;location;lat;lon;timestamp;P1;durP1;ratioP1;P2;durP2;ratioP2
42886;SDS011;29032;56.028;92.904;2024-02-23T00:00:31;97.10;;;34.47;;
42886;SDS011;29032;56.028;92.904;2024-02-23T00:05:33;115.90;;;38.47;;
42886;SDS011;29032;56.028;92.904;2024-02-23T00:10:37;101.73;;;37.83;;
42886;SDS011;29032;56.028;92.904;2024-02-23T00:15:39;94.53;;;32.67;;
42886;SDS011;29032;56.028;92.904;2024-02-23T00:20:41;89.27;;;33.00;;
42886;SDS011;29032;56.028;92.904;2024-02-23T00:25:45;76.20;;;27.70;;
42886;SDS011;29032;56.028;92.904;2024-02-23T00:30:47;55.63;;;21.10;;
42886;SDS011;29032;56.028;92.904;2024-02-23T00:35:49;72.27;;;25.90;;
42886;SDS011;29032;56.028;92.904;2024-02-23T00:40:53;59.53;;;22.47;;
42886;SDS011;29032;56.028;92.904;2024-02-23T00:51:15;51.87;;;21.00;;
42886;SDS011;29032;56.028;92.904;2024-02-23T00:56:19;58.17;;;23.83;;
42886;SDS011;29032;56.028;92.904;2024-02-23T01:01:21;58.23;;;23.57;;
42886;SDS011;29032;56.028;92.904;2024-02-23T01:06:23;55.37;;;23.67;;
42886;SDS011;29032;56.028;92.904;2024-02-23T01:11:27;41.30;;;17.27;;
42886;SDS011;29032;56.028;92.904;2024-02-23T01:16:29;62.43;;;21.43;;
42886;SDS011;29032;56.028;92.904;2024-02-23T01:21:31;65.83;;;25.13;;
42886;SDS011;29032;56.028;92.904;2024-02-23T01:26:35;51.93;;;21.73;;
42886;SDS011;29032;56.028;92.904;2024-02-23T01:31:37;53.80;;;25.23;;
42886;SDS011;29032;56.028;92.904;2024-02-23T01:36:39;57.53;;;22.73;;
42886;SDS011;29032;56.028;92.904;2024-02-23T01:41:43;62.37;;;22.70;;
42886;SDS011;29032;56.028;92.904;2024-02-23T01:46:45;59.80;;;22.07;;
42886;SDS011;29032;56.028;92.904;2024-02-23T01:51:47;62.57;;;24.40;;
42886;SDS011;29032;56.028;92.904;2024-02-23T01:56:51;68.37;;;22.30;;
42886;SDS011;29032;56.028;92.904;2024-02-23T02:01:54;61.13;;;24.50;;
42886;SDS011;29032;56.028;92.904;2024-02-23T02:06:57;67.80;;;25.43;;
42886;SDS011;29032;56.028;92.904;2024-02-23T02:12:02;87.93;;;29.57;;
42886;SDS011;29032;56.028;92.904;2024-02-23T02:17:04;85.17;;;30.93;;
42886;SDS011;29032;56.028;92.904;2024-02-23T02:22:06;81.40;;;31.60;;
42886;SDS011;29032;56.028;92.904;2024-02-23T02:27:10;90.40;;;29.50;;
42886;SDS011;29032;56.028;92.904;2024-02-23T02:32:12;99.73;;;32.33;;
42886;SDS011;29032;56.028;92.904;2024-02-23T02:37:14;92.93;;;33.47;;
42886;SDS011;29032;56.028;92.904;2024-02-23T02:42:18;90.17;;;33.03;;
42886;SDS011;29032;56.028;92.904;2024-02-23T02:47:20;72.40;;;26.90;;
42886;SDS011;29032;56.028;92.904;2024-02-23T02:52:22;72.07;;;25.50;;
42886;SDS011;29032;56.028;92.904;2024-02-23T02:57:26;67.53;;;26.03;;
42886;SDS011;29032;56.028;92.904;2024-02-23T03:02:28;64.17;;;25.20;;
42886;SDS011;29032;56.028;92.904;2024-02-23T03:07:30;78.57;;;29.07;;
42886;SDS011;29032;56.028;92.904;2024-02-23T03:12:34;74.63;;;27.83;;
42886;SDS011;29032;56.028;92.904;2024-02-23T03:17:36;77.30;;;27.13;;
42886;SDS011;29032;56.028;92.904;2024-02-23T03:22:38;80.30;;;30.67;;
42886;SDS011;29032;56.028;92.904;2024-02-23T03:27:42;87.17;;;30.53;;
42886;SDS011;29032;56.028;92.904;2024-02-23T03:32:44;87.17;;;31.60;;
42886;SDS011;29032;56.028;92.904;2024-02-23T03:37:46;87.47;;;32.40;;
42886;SDS011;29032;56.028;92.904;2024-02-23T03:42:50;63.77;;;25.77;;
42886;SDS011;29032;56.028;92.904;2024-02-23T03:47:52;72.37;;;28.07;;
42886;SDS011;29032;56.028;92.904;2024-02-23T03:52:54;62.27;;;24.17;;
42886;SDS011;29032;56.028;92.904;2024-02-23T03:57:58;71.53;;;24.80;;
42886;SDS011;29032;56.028;92.904;2024-02-23T04:03:00;68.70;;;25.10;;
42886;SDS011;29032;56.028;92.904;2024-02-23T04:08:02;69.60;;;25.03;;
42886;SDS011;29032;56.028;92.904;2024-02-23T04:13:06;69.13;;;24.97;;
42886;SDS011;29032;56.028;92.904;2024-02-23T04:18:08;55.23;;;22.13;;
42886;SDS011;29032;56.028;92.904;2024-02-23T04:23:11;75.07;;;26.27;;
42886;SDS011;29032;56.028;92.904;2024-02-23T04:28:14;71.17;;;26.47;;
42886;SDS011;29032;56.028;92.904;2024-02-23T04:33:17;79.57;;;24.47;;
42886;SDS011;29032;56.028;92.904;2024-02-23T04:38:19;96.50;;;31.57;;
42886;SDS011;29032;56.028;92.904;2024-02-23T04:43:23;84.07;;;28.67;;
42886;SDS011;29032;56.028;92.904;2024-02-23T04:48:25;63.87;;;23.77;;
42886;SDS011;29032;56.028;92.904;2024-02-23T04:53:27;55.97;;;22.23;;
42886;SDS011;29032;56.028;92.904;2024-02-23T04:58:31;61.30;;;20.23;;
42886;SDS011;29032;56.028;92.904;2024-02-23T05:03:33;55.90;;;20.97;;
42886;SDS011;29032;56.028;92.904;2024-02-23T05:08:35;58.90;;;20.93;;
42886;SDS011;29032;56.028;92.904;2024-02-23T05:13:39;63.80;;;22.37;;
42886;SDS011;29032;56.028;92.904;2024-02-23T05:18:41;57.67;;;22.43;;
42886;SDS011;29032;56.028;92.904;2024-02-23T05:23:44;61.27;;;22.77;;
42886;SDS011;29032;56.028;92.904;2024-02-23T05:28:47;48.80;;;19.70;;
42886;SDS011;29032;56.028;92.904;2024-02-23T05:33:50;45.90;;;18.47;;
42886;SDS011;29032;56.028;92.904;2024-02-23T05:38:52;40.50;;;16.80;;
42886;SDS011;29032;56.028;92.904;2024-02-23T05:43:56;43.67;;;18.10;;
42886;SDS011;29032;56.028;92.904;2024-02-23T05:48:58;37.53;;;14.33;;
42886;SDS011;29032;56.028;92.904;2024-02-23T05:54:00;37.57;;;14.70;;
42886;SDS011;29032;56.028;92.904;2024-02-23T05:59:04;36.10;;;14.23;;
42886;SDS011;29032;56.028;92.904;2024-02-23T06:04:06;28.37;;;12.57;;
42886;SDS011;29032;56.028;92.904;2024-02-23T06:09:08;33.27;;;14.00;;
42886;SDS011;29032;56.028;92.904;2024-02-23T06:14:12;43.73;;;15.20;;
42886;SDS011;29032;56.028;92.904;2024-02-23T06:19:14;35.97;;;15.40;;
42886;SDS011;29032;56.028;92.904;2024-02-23T06:24:16;35.10;;;14.47;;
42886;SDS011;29032;56.028;92.904;2024-02-23T06:29:20;37.10;;;15.00;;
42886;SDS011;29032;56.028;92.904;2024-02-23T06:34:22;39.47;;;14.87;;
42886;SDS011;29032;56.028;92.904;2024-02-23T06:39:24;39.13;;;16.40;;
42886;SDS011;29032;56.028;92.904;2024-02-23T06:44:28;35.33;;;14.53;;
42886;SDS011;29032;56.028;92.904;2024-02-23T06:49:30;44.37;;;17.47;;
42886;SDS011;29032;56.028;92.904;2024-02-23T06:54:32;42.17;;;19.07;;
42886;SDS011;29032;56.028;92.904;2024-02-23T06:59:36;37.67;;;15.33;;
42886;SDS011;29032;56.028;92.904;2024-02-23T07:04:38;42.23;;;17.43;;
42886;SDS011;29032;56.028;92.904;2024-02-23T07:09:40;41.90;;;15.97;;
42886;SDS011;29032;56.028;92.904;2024-02-23T07:14:43;51.30;;;21.00;;
42886;SDS011;29032;56.028;92.904;2024-02-23T07:19:46;51.53;;;20.53;;
42886;SDS011;29032;56.028;92.904;2024-02-23T07:24:48;47.27;;;18.63;;
42886;SDS011;29032;56.028;92.904;2024-02-23T07:29:51;43.77;;;19.87;;
42886;SDS011;29032;56.028;92.904;2024-02-23T07:34:53;45.53;;;19.40;;
42886;SDS011;29032;56.028;92.904;2024-02-23T07:39:56;53.23;;;22.53;;
42886;SDS011;29032;56.028;92.904;2024-02-23T07:44:59;50.17;;;20.57;;
42886;SDS011;29032;56.028;92.904;2024-02-23T07:50:01;46.97;;;18.43;;
42886;SDS011;29032;56.028;92.904;2024-02-23T07:55:04;43.93;;;18.77;;
42886;SDS011;29032;56.028;92.904;2024-02-23T08:00:09;41.40;;;17.50;;
42886;SDS011;29032;56.028;92.904;2024-02-23T08:05:14;43.87;;;19.13;;
42886;SDS011;29032;56.028;92.904;2024-02-23T08:10:19;46.10;;;19.50;;
42886;SDS011;29032;56.028;92.904;2024-02-23T08:15:23;52.60;;;20.13;;
42886;SDS011;29032;56.028;92.904;2024-02-23T08:20:25;44.07;;;20.00;;
42886;SDS011;29032;56.028;92.904;2024-02-23T08:25:46;47.37;;;19.07;;
42886;SDS011;29032;56.028;92.904;2024-02-23T08:30:50;51.17;;;17.97;;
42886;SDS011;29032;56.028;92.904;2024-02-23T08:35:52;44.87;;;19.57;;
42886;SDS011;29032;56.028;92.904;2024-02-23T08:40:54;46.53;;;19.13;;
42886;SDS011;29032;56.028;92.904;2024-02-23T08:45:58;44.40;;;17.77;;
42886;SDS011;29032;56.028;92.904;2024-02-23T08:51:00;39.93;;;18.20;;
42886;SDS011;29032;56.028;92.904;2024-02-23T08:56:02;40.70;;;17.60;;
42886;SDS011;29032;56.028;92.904;2024-02-23T09:01:06;43.93;;;19.23;;
42886;SDS011;29032;56.028;92.904;2024-02-23T09:06:09;45.03;;;18.13;;
42886;SDS011;29032;56.028;92.904;2024-02-23T09:11:11;49.07;;;18.13;;
42886;SDS011;29032;56.028;92.904;2024-02-23T09:16:15;45.97;;;17.33;;
42886;SDS011;29032;56.028;92.904;2024-02-23T09:21:17;42.93;;;18.17;;
42886;SDS011;29032;56.028;92.904;2024-02-23T09:26:20;43.63;;;16.50;;
42886;SDS011;29032;56.028;92.904;2024-02-23T09:31:23;38.33;;;17.50;;
42886;SDS011;29032;56.028;92.904;2024-02-23T09:36:25;33.33;;;16.67;;
42886;SDS011;29032;56.028;92.904;2024-02-23T09:41:28;49.40;;;18.17;;
42886;SDS011;29032;56.028;92.904;2024-02-23T09:46:31;46.73;;;18.50;;
42886;SDS011;29032;56.028;92.904;2024-02-23T09:51:34;41.67;;;16.23;;
42886;SDS011;29032;56.028;92.904;2024-02-23T09:56:36;39.23;;;15.60;;
42886;SDS011;29032;56.028;92.904;2024-02-23T10:01:41;40.60;;;15.77;;
42886;SDS011;29032;56.028;92.904;2024-02-23T10:06:44;51.47;;;20.43;;
42886;SDS011;29032;56.028;92.904;2024-02-23T10:11:46;48.37;;;19.40;;
42886;SDS011;29032;56.028;92.904;2024-02-23T10:16:55;41.97;;;18.33;;
42886;SDS011;29032;56.028;92.904;2024-02-23T10:21:58;46.50;;;18.37;;
42886;SDS011;29032;56.028;92.904;2024-02-23T10:27:00;45.20;;;16.93;;
42886;SDS011;29032;56.028;92.904;2024-02-23T10:32:05;41.70;;;17.60;;
42886;SDS011;29032;56.028;92.904;2024-02-23T10:37:08;39.20;;;15.17;;
42886;SDS011;29032;56.028;92.904;2024-02-23T10:42:11;37.30;;;16.23;;
42886;SDS011;29032;56.028;92.904;2024-02-23T10:47:16;37.67;;;15.53;;
42886;SDS011;29032;56.028;92.904;2024-02-23T10:52:21;38.57;;;16.03;;
42886;SDS011;29032;56.028;92.904;2024-02-23T10:57:26;35.03;;;15.43;;
42886;SDS011;29032;56.028;92.904;2024-02-23T11:02:30;42.77;;;16.53;;
42886;SDS011;29032;56.028;92.904;2024-02-23T11:07:37;40.47;;;14.77;;
42886;SDS011;29032;56.028;92.904;2024-02-23T11:12:40;35.90;;;14.90;;
42886;SDS011;29032;56.028;92.904;2024-02-23T11:17:49;36.97;;;15.80;;
42886;SDS011;29032;56.028;92.904;2024-02-23T11:22:51;37.37;;;14.40;;
42886;SDS011;29032;56.028;92.904;2024-02-23T11:27:54;41.17;;;16.10;;
42886;SDS011;29032;56.028;92.904;2024-02-23T11:32:59;48.90;;;15.67;;
42886;SDS011;29032;56.028;92.904;2024-02-23T11:38:01;35.67;;;15.80;;
42886;SDS011;29032;56.028;92.904;2024-02-23T11:43:06;44.80;;;15.87;;
42886;SDS011;29032;56.028;92.904;2024-02-23T11:48:11;36.27;;;14.53;;
42886;SDS011;29032;56.028;92.904;2024-02-23T11:53:13;41.97;;;16.47;;
42886;SDS011;29032;56.028;92.904;2024-02-23T11:58:15;43.13;;;15.23;;
42886;SDS011;29032;56.028;92.904;2024-02-23T12:03:19;40.57;;;15.33;;
42886;SDS011;29032;56.028;92.904;2024-02-23T12:08:21;47.97;;;17.27;;
42886;SDS011;29032;56.028;92.904;2024-02-23T12:13:24;43.80;;;18.23;;
42886;SDS011;29032;56.028;92.904;2024-02-23T12:18:28;42.53;;;17.20;;
42886;SDS011;29032;56.028;92.904;2024-02-23T12:23:37;45.43;;;17.13;;
42886;SDS011;29032;56.028;92.904;2024-02-23T12:28:43;42.77;;;15.87;;
42886;SDS011;29032;56.028;92.904;2024-02-23T12:33:48;37.53;;;15.70;;
42886;SDS011;29032;56.028;92.904;2024-02-23T12:38:51;37.20;;;16.23;;
42886;SDS011;29032;56.028;92.904;2024-02-23T12:43:53;37.93;;;15.73;;
42886;SDS011;29032;56.028;92.904;2024-02-23T12:48:57;44.07;;;16.97;;
42886;SDS011;29032;56.028;92.904;2024-02-23T12:54:00;40.87;;;17.37;;
42886;SDS011;29032;56.028;92.904;2024-02-23T12:59:02;37.57;;;17.03;;
42886;SDS011;29032;56.028;92.904;2024-02-23T13:04:24;47.43;;;14.70;;
42886;SDS011;29032;56.028;92.904;2024-02-23T13:09:26;46.40;;;17.13;;
42886;SDS011;29032;56.028;92.904;2024-02-23T13:14:28;41.77;;;16.63;;
42886;SDS011;29032;56.028;92.904;2024-02-23T13:19:32;48.37;;;16.90;;
42886;SDS011;29032;56.028;92.904;2024-02-23T13:24:34;43.97;;;18.40;;
42886;SDS011;29032;56.028;92.904;2024-02-23T13:29:36;43.30;;;16.93;;
42886;SDS011;29032;56.028;92.904;2024-02-23T13:34:40;45.13;;;17.60;;
42886;SDS011;29032;56.028;92.904;2024-02-23T13:39:43;44.73;;;17.73;;
42886;SDS011;29032;56.028;92.904;2024-02-23T13:44:45;42.33;;;16.63;;
42886;SDS011;29032;56.028;92.904;2024-02-23T13:49:49;40.50;;;17.60;;
42886;SDS011;29032;56.028;92.904;2024-02-23T13:54:51;43.33;;;17.43;;
42886;SDS011;29032;56.028;92.904;2024-02-23T13:59:53;91.90;;;28.57;;
42886;SDS011;29032;56.028;92.904;2024-02-23T14:05:00;144.10;;;42.73;;
42886;SDS011;29032;56.028;92.904;2024-02-23T14:10:03;128.47;;;43.30;;
42886;SDS011;29032;56.028;92.904;2024-02-23T14:15:06;132.93;;;46.13;;
42886;SDS011;29032;56.028;92.904;2024-02-23T14:20:29;179.43;;;56.10;;
42886;SDS011;29032;56.028;92.904;2024-02-23T14:30:51;193.83;;;67.23;;
42886;SDS011;29032;56.028;92.904;2024-02-23T14:35:55;161.40;;;52.53;;
42886;SDS011;29032;56.028;92.904;2024-02-23T14:40:57;211.20;;;70.00;;
42886;SDS011;29032;56.028;92.904;2024-02-23T14:46:00;200.90;;;69.43;;
42886;SDS011;29032;56.028;92.904;2024-02-23T14:51:04;166.97;;;60.17;;
42886;SDS011;29032;56.028;92.904;2024-02-23T14:56:06;129.90;;;47.13;;
42886;SDS011;29032;56.028;92.904;2024-02-23T15:01:09;122.83;;;42.27;;
42886;SDS011;29032;56.028;92.904;2024-02-23T15:06:13;101.77;;;36.40;;
42886;SDS011;29032;56.028;92.904;2024-02-23T15:11:15;112.80;;;38.13;;
42886;SDS011;29032;56.028;92.904;2024-02-23T15:16:18;105.77;;;38.00;;
42886;SDS011;29032;56.028;92.904;2024-02-23T15:21:21;111.67;;;41.00;;
42886;SDS011;29032;56.028;92.904;2024-02-23T15:26:24;116.43;;;40.27;;
42886;SDS011;29032;56.028;92.904;2024-02-23T15:31:26;102.20;;;36.50;;
42886;SDS011;29032;56.028;92.904;2024-02-23T15:36:30;104.60;;;36.80;;
42886;SDS011;29032;56.028;92.904;2024-02-23T15:41:33;105.97;;;38.07;;
42886;SDS011;29032;56.028;92.904;2024-02-23T15:46:35;111.50;;;39.43;;
42886;SDS011;29032;56.028;92.904;2024-02-23T15:51:39;131.67;;;46.00;;
42886;SDS011;29032;56.028;92.904;2024-02-23T15:56:42;121.27;;;40.30;;
42886;SDS011;29032;56.028;92.904;2024-02-23T16:01:44;83.40;;;32.90;;
42886;SDS011;29032;56.028;92.904;2024-02-23T16:06:48;90.77;;;30.50;;
42886;SDS011;29032;56.028;92.904;2024-02-23T16:17:11;84.67;;;29.37;;
42886;SDS011;29032;56.028;92.904;2024-02-23T16:22:14;84.37;;;28.57;;
42886;SDS011;29032;56.028;92.904;2024-02-23T16:27:17;65.77;;;25.33;;
42886;SDS011;29032;56.028;92.904;2024-02-23T16:32:19;90.77;;;28.17;;
42886;SDS011;29032;56.028;92.904;2024-02-23T16:37:23;112.47;;;34.43;;
42886;SDS011;29032;56.028;92.904;2024-02-23T16:42:26;101.00;;;32.70;;
42886;SDS011;29032;56.028;92.904;2024-02-23T16:47:28;90.53;;;31.80;;
42886;SDS011;29032;56.028;92.904;2024-02-23T16:52:32;71.87;;;27.27;;
42886;SDS011;29032;56.028;92.904;2024-02-23T16:57:35;67.77;;;25.00;;
42886;SDS011;29032;56.028;92.904;2024-02-23T17:02:37;70.30;;;26.90;;
42886;SDS011;29032;56.028;92.904;2024-02-23T17:07:41;73.43;;;27.40;;
42886;SDS011;29032;56.028;92.904;2024-02-23T17:12:43;85.53;;;29.50;;
42886;SDS011;29032;56.028;92.904;2024-02-23T17:17:46;103.27;;;34.73;;
42886;SDS011;29032;56.028;92.904;2024-02-23T17:22:50;99.33;;;33.77;;
42886;SDS011;29032;56.028;92.904;2024-02-23T17:27:52;95.63;;;33.93;;
42886;SDS011;29032;56.028;92.904;2024-02-23T17:32:55;100.33;;;34.90;;
42886;SDS011;29032;56.028;92.904;2024-02-23T17:37:58;121.00;;;39.07;;
42886;SDS011;29032;56.028;92.904;2024-02-23T17:43:01;103.80;;;36.10;;
42886;SDS011;29032;56.028;92.904;2024-02-23T17:48:03;100.43;;;35.73;;
42886;SDS011;29032;56.028;92.904;2024-02-23T17:53:08;90.80;;;32.13;;
42886;SDS011;29032;56.028;92.904;2024-02-23T17:58:10;92.87;;;34.73;;
42886;SDS011;29032;56.028;92.904;2024-02-23T18:03:12;85.60;;;30.90;;
42886;SDS011;29032;56.028;92.904;2024-02-23T18:08:16;86.37;;;27.63;;
42886;SDS011;29032;56.028;92.904;2024-02-23T18:13:18;73.60;;;29.13;;
42886;SDS011;29032;56.028;92.904;2024-02-23T18:18:26;67.57;;;27.90;;
42886;SDS011;29032;56.028;92.904;2024-02-23T18:23:31;84.07;;;28.73;;
42886;SDS011;29032;56.028;92.904;2024-02-23T18:28:34;74.23;;;28.23;;
42886;SDS011;29032;56.028;92.904;2024-02-23T18:33:37;71.80;;;26.03;;
42886;SDS011;29032;56.028;92.904;2024-02-23T18:38:41;73.30;;;28.10;;
42886;SDS011;29032;56.028;92.904;2024-02-23T18:43:44;81.27;;;29.37;;
42886;SDS011;29032;56.028;92.904;2024-02-23T18:49:04;72.13;;;28.07;;
42886;SDS011;29032;56.028;92.904;2024-02-23T18:54:08;91.90;;;29.53;;
42886;SDS011;29032;56.028;92.904;2024-02-23T18:59:10;84.80;;;30.00;;
42886;SDS011;29032;56.028;92.904;2024-02-23T19:04:12;84.87;;;30.17;;
42886;SDS011;29032;56.028;92.904;2024-02-23T19:09:16;56.30;;;21.60;;
42886;SDS011;29032;56.028;92.904;2024-02-23T19:14:18;75.93;;;27.17;;
42886;SDS011;29032;56.028;92.904;2024-02-23T19:19:20;65.37;;;24.37;;
42886;SDS011;29032;56.028;92.904;2024-02-23T19:24:42;73.70;;;24.90;;
42886;SDS011;29032;56.028;92.904;2024-02-23T19:29:45;64.67;;;25.50;;
42886;SDS011;29032;56.028;92.904;2024-02-23T19:34:47;80.13;;;26.43;;
42886;SDS011;29032;56.028;92.904;2024-02-23T19:39:51;68.70;;;24.27;;
42886;SDS011;29032;56.028;92.904;2024-02-23T19:44:53;59.93;;;25.57;;
42886;SDS011;29032;56.028;92.904;2024-02-23T19:49:56;70.03;;;22.77;;
42886;SDS011;29032;56.028;92.904;2024-02-23T19:55:00;67.57;;;25.20;;
42886;SDS011;29032;56.028;92.904;2024-02-23T20:00:02;69.83;;;26.17;;
42886;SDS011;29032;56.028;92.904;2024-02-23T20:05:06;63.17;;;22.60;;
42886;SDS011;29032;56.028;92.904;2024-02-23T20:10:10;87.40;;;27.63;;
42886;SDS011;29032;56.028;92.904;2024-02-23T20:15:12;61.90;;;23.33;;
42886;SDS011;29032;56.028;92.904;2024-02-23T20:20:15;63.00;;;23.93;;
42886;SDS011;29032;56.028;92.904;2024-02-23T20:25:19;66.00;;;24.90;;
42886;SDS011;29032;56.028;92.904;2024-02-23T20:30:22;73.67;;;25.73;;
42886;SDS011;29032;56.028;92.904;2024-02-23T20:35:24;79.87;;;27.70;;
42886;SDS011;29032;56.028;92.904;2024-02-23T20:40:27;67.00;;;24.90;;
42886;SDS011;29032;56.028;92.904;2024-02-23T20:45:30;71.30;;;26.63;;
42886;SDS011;29032;56.028;92.904;2024-02-23T20:50:32;71.10;;;26.23;;
42886;SDS011;29032;56.028;92.904;2024-02-23T20:55:35;73.63;;;25.67;;
42886;SDS011;29032;56.028;92.904;2024-02-23T21:00:38;58.47;;;24.33;;
42886;SDS011;29032;56.028;92.904;2024-02-23T21:05:40;71.30;;;24.43;;
42886;SDS011;29032;56.028;92.904;2024-02-23T21:10:43;60.03;;;21.93;;
42886;SDS011;29032;56.028;92.904;2024-02-23T21:15:46;54.03;;;20.10;;
42886;SDS011;29032;56.028;92.904;2024-02-23T21:20:48;49.80;;;20.37;;
42886;SDS011;29032;56.028;92.904;2024-02-23T21:25:51;51.83;;;21.27;;
42886;SDS011;29032;56.028;92.904;2024-02-23T21:30:54;58.60;;;21.00;;
42886;SDS011;29032;56.028;92.904;2024-02-23T21:35:56;60.93;;;22.17;;
42886;SDS011;29032;56.028;92.904;2024-02-23T21:46:20;55.27;;;21.60;;
42886;SDS011;29032;56.028;92.904;2024-02-23T21:51:22;71.80;;;23.67;;
42886;SDS011;29032;56.028;92.904;2024-02-23T21:56:26;62.80;;;23.17;;
42886;SDS011;29032;56.028;92.904;2024-02-23T22:01:28;67.90;;;22.60;;
42886;SDS011;29032;56.028;92.904;2024-02-23T22:06:30;67.40;;;26.73;;
42886;SDS011;29032;56.028;92.904;2024-02-23T22:11:34;65.17;;;23.60;;
42886;SDS011;29032;56.028;92.904;2024-02-23T22:16:36;56.73;;;21.93;;
42886;SDS011;29032;56.028;92.904;2024-02-23T22:21:38;47.73;;;18.90;;
42886;SDS011;29032;56.028;92.904;2024-02-23T22:26:42;49.93;;;18.97;;
42886;SDS011;29032;56.028;92.904;2024-02-23T22:31:44;44.30;;;16.77;;
42886;SDS011;29032;56.028;92.904;2024-02-23T22:36:47;48.40;;;16.60;;
42886;SDS011;29032;56.028;92.904;2024-02-23T22:41:51;47.93;;;19.57;;
42886;SDS011;29032;56.028;92.904;2024-02-23T22:46:53;56.23;;;18.37;;
42886;SDS011;29032;56.028;92.904;2024-02-23T22:51:56;48.07;;;18.33;;
42886;SDS011;29032;56.028;92.904;2024-02-23T22:56:59;62.13;;;21.83;;
42886;SDS011;29032;56.028;92.904;2024-02-23T23:02:02;58.40;;;20.23;;
42886;SDS011;29032;56.028;92.904;2024-02-23T23:07:04;57.63;;;19.93;;
42886;SDS011;29032;56.028;92.904;2024-02-23T23:12:08;56.37;;;20.67;;
42886;SDS011;29032;56.028;92.904;2024-02-23T23:17:10;69.50;;;25.53;;
42886;SDS011;29032;56.028;92.904;2024-02-23T23:22:12;68.40;;;23.23;;
42886;SDS011;29032;56.028;92.904;2024-02-23T23:27:16;58.70;;;22.10;;
42886;SDS011;29032;56.028;92.904;2024-02-23T23:32:18;51.13;;;20.90;;
42886;SDS011;29032;56.028;92.904;2024-02-23T23:37:20;59.17;;;22.83;;
42886;SDS011;29032;56.028;92.904;2024-02-23T23:42:24;68.30;;;22.07;;
42886;SDS011;29032;56.028;92.904;2024-02-23T23:47:26;60.77;;;22.03;;
42886;SDS011;29032;56.028;92.904;2024-02-23T23:52:28;67.97;;;24.43;;
42886;SDS011;29032;56.028;92.904;2024-02-23T23:57:32;72.57;;;22.87;;
